Time;durP1;ratioP1;P1;durP2;ratioP2;P2;SDS_P1;SDS_P2;PMS_P1;PMS_P2;Temp;Humidity;BMP_temperature;BMP_pressure;BME280_temperature;BME280_humidity;BME280_pressure;Samples;Min_cycle;Max_cycle;Signal;HPM_P1;HPM_P2
2022/06/02 00:01:26;;;;;;;4.38;3.85;;;13.40;98.30;;;;;;4993362;28;20663;-75
2022/06/02 00:03:57;;;;;;;4.10;3.60;;;13.40;98.40;;;;;;4991829;28;20205;-75
2022/06/02 00:06:40;;;;;;;5.65;4.50;;;13.40;98.10;;;;;;5011617;28;20171;-75
2022/06/02 00:09:20;;;;;;;5.25;3.58;;;13.30;98.50;;;;;;4993634;28;20167;-75
2022/06/02 00:12:07;;;;;;;4.03;3.63;;;13.30;98.90;;;;;;5011260;28;20174;-75
2022/06/02 00:15:03;;;;;;;8.77;4.05;;;13.20;99.30;;;;;;5011137;28;20362;-75
2022/06/02 00:17:59;;;;;;;5.78;4.07;;;13.20;99.40;;;;;;5011499;28;20177;-76
2022/06/02 00:21:13;;;;;;;9.93;4.20;;;13.20;99.80;;;;;;4993157;28;20202;-76
2022/06/02 00:23:47;;;;;;;4.15;3.70;;;13.10;99.80;;;;;;4915640;29;20204;-76
2022/06/02 00:26:41;;;;;;;7.18;4.88;;;13.10;99.60;;;;;;4916011;29;20172;-76
2022/06/02 00:29:16;;;;;;;5.15;4.65;;;13.10;99.90;;;;;;4993145;28;20193;-76
2022/06/02 00:32:13;;;;;;;4.60;4.20;;;13.10;99.90;;;;;;5010942;28;20548;-76
2022/06/02 00:35:04;;;;;;;4.95;4.45;;;13.10;99.90;;;;;;5011614;28;20222;-75
2022/06/02 00:37:57;;;;;;;5.63;5.13;;;13.10;99.90;;;;;;5011478;28;20225;-76
2022/06/02 00:40:25;;;;;;;5.38;4.80;;;13.10;99.90;;;;;;5011203;28;20173;-76
2022/06/02 00:43:04;;;;;;;6.05;5.30;;;13.10;99.90;;;;;;5011660;28;20163;-76
2022/06/02 00:45:31;;;;;;;5.18;4.55;;;13.10;99.90;;;;;;5011011;28;20193;-76
2022/06/02 00:48:11;;;;;;;5.43;4.88;;;13.00;99.90;;;;;;5011508;28;20519;-76
2022/06/02 00:50:41;;;;;;;5.47;4.85;;;13.00;99.90;;;;;;4992995;28;20205;-76
2022/06/02 00:53:09;;;;;;;5.97;5.22;;;13.00;99.90;;;;;;5011171;28;20523;-76
2022/06/02 00:58:51;;;;;;;5.68;5.18;;;12.90;99.90;;;;;;5014479;28;20675;-76
2022/06/02 01:01:30;;;;;;;5.75;5.15;;;12.90;99.90;;;;;;5013711;28;20194;-76
2022/06/02 01:03:57;;;;;;;6.10;5.50;;;12.90;99.90;;;;;;5014653;28;20236;-76
2022/06/02 01:06:43;;;;;;;6.30;5.70;;;12.80;99.90;;;;;;4996916;28;20224;-76
2022/06/02 01:09:33;;;;;;;5.97;5.38;;;12.80;99.90;;;;;;5014016;28;20171;-76
2022/06/02 01:12:22;;;;;;;5.93;5.13;;;12.80;99.90;;;;;;4996321;28;20217;-76
2022/06/02 01:15:22;;;;;;;6.07;5.53;;;12.70;99.90;;;;;;5013972;28;20268;-76
2022/06/02 01:18:14;;;;;;;5.45;4.95;;;12.70;99.90;;;;;;5014359;28;20181;-76
2022/06/02 01:20:53;;;;;;;6.47;5.45;;;12.60;99.90;;;;;;5013234;28;20278;-76
2022/06/02 01:23:41;;;;;;;6.32;5.72;;;12.60;99.90;;;;;;5014332;28;20162;-76
2022/06/02 01:26:36;;;;;;;7.40;6.32;;;12.50;99.90;;;;;;5014030;28;20185;-75
2022/06/02 01:29:45;;;;;;;9.40;5.50;;;12.50;99.90;;;;;;4996519;28;20173;-75
2022/06/02 01:32:16;;;;;;;6.97;6.38;;;12.40;99.90;;;;;;5014457;28;20252;-75
2022/06/02 01:35:09;;;;;;;5.80;5.13;;;12.40;99.90;;;;;;4996398;28;20198;-75
2022/06/02 01:37:50;;;;;;;6.57;5.28;;;12.40;99.90;;;;;;5013725;28;20171;-75
2022/06/02 01:40:33;;;;;;;7.15;6.50;;;12.40;99.90;;;;;;5012959;28;20665;-74
2022/06/02 01:43:11;;;;;;;6.45;5.75;;;12.30;99.90;;;;;;5013965;28;20169;-74
2022/06/02 01:46:15;;;;;;;6.20;5.60;;;12.40;99.90;;;;;;4996407;28;20186;-74
2022/06/02 01:49:11;;;;;;;5.88;5.30;;;12.30;99.90;;;;;;5024330;28;20618;-73
2022/06/02 01:52:10;;;;;;;6.95;5.55;;;12.30;99.90;;;;;;5032866;28;20178;-74
2022/06/02 01:55:09;;;;;;;6.25;5.65;;;12.30;99.90;;;;;;5015438;28;20193;-74
2022/06/02 01:58:07;;;;;;;5.75;5.25;;;12.30;99.90;;;;;;5016059;28;20198;-74
2022/06/02 02:00:34;;;;;;;6.18;4.80;;;12.20;99.90;;;;;;4988350;28;20296;-74
2022/06/02 02:03:33;;;;;;;5.40;4.97;;;12.20;99.90;;;;;;5033258;28;20165;-73
2022/06/02 02:06:04;;;;;;;5.82;5.28;;;12.10;99.90;;;;;;5033304;28;20929;-73
2022/06/02 02:08:53;;;;;;;5.70;5.20;;;12.10;99.90;;;;;;5032793;28;20166;-74
2022/06/02 02:11:40;;;;;;;5.78;5.28;;;12.10;99.90;;;;;;5032424;28;20231;-73
2022/06/02 02:14:18;;;;;;;6.57;5.30;;;12.00;99.90;;;;;;5032883;28;20206;-73
2022/06/02 02:16:54;;;;;;;8.20;6.35;;;12.00;99.90;;;;;;5015131;28;20177;-74
2022/06/02 02:19:22;;;;;;;6.07;5.47;;;12.00;99.90;;;;;;5031195;28;20273;-74
2022/06/02 02:21:51;;;;;;;8.02;5.72;;;12.00;99.90;;;;;;5011853;28;20209;-73
2022/06/02 02:24:42;;;;;;;6.78;6.05;;;12.00;99.90;;;;;;5012902;28;20198;-74
2022/06/02 02:27:17;;;;;;;7.05;5.45;;;12.00;99.90;;;;;;5011737;28;20182;-74
2022/06/02 02:29:54;;;;;;;5.88;5.32;;;12.00;99.90;;;;;;5012166;28;20536;-74
2022/06/02 02:32:23;;;;;;;6.10;5.60;;;12.00;99.90;;;;;;5012916;28;20182;-74
2022/06/02 02:35:38;;;;;;;5.90;5.40;;;12.00;99.90;;;;;;5012931;28;20730;-74
2022/06/02 02:38:13;;;;;;;6.00;4.90;;;12.00;99.90;;;;;;5003553;28;20634;-74
2022/06/02 02:41:03;;;;;;;6.68;6.07;;;12.00;99.90;;;;;;5011853;28;20193;-74
2022/06/02 02:43:39;;;;;;;6.60;5.63;;;11.90;99.90;;;;;;5012578;28;20189;-74
2022/06/02 02:46:09;;;;;;;5.63;5.03;;;11.90;99.90;;;;;;5012693;28;20167;-74
2022/06/02 02:49:35;;;;;;;6.22;5.63;;;11.90;99.90;;;;;;5012583;28;20186;-74
2022/06/02 02:52:16;;;;;;;6.90;5.38;;;11.90;99.90;;;;;;4990173;28;20206;-75
2022/06/02 02:54:57;;;;;;;7.07;6.38;;;11.90;99.90;;;;;;5011603;28;20190;-75
2022/06/02 02:57:41;;;;;;;7.57;5.55;;;11.90;99.90;;;;;;4995204;28;20170;-74
2022/06/02 03:00:17;;;;;;;6.88;6.13;;;11.80;99.90;;;;;;5010942;28;20494;-74
2022/06/02 03:03:06;;;;;;;7.82;5.38;;;11.80;99.90;;;;;;5011548;28;20170;-74
2022/06/02 03:05:56;;;;;;;6.75;5.80;;;11.80;99.90;;;;;;5011916;28;20167;-74
2022/06/02 03:08:44;;;;;;;7.28;6.25;;;11.80;99.90;;;;;;5010826;28;20181;-74
2022/06/02 03:11:26;;;;;;;7.35;6.65;;;11.80;99.90;;;;;;5011287;28;20244;-74
2022/06/02 03:14:12;;;;;;;8.40;6.35;;;11.80;99.90;;;;;;5011955;28;20224;-74
2022/06/02 03:16:39;;;;;;;9.27;6.50;;;11.80;99.90;;;;;;5010477;28;20189;-74
2022/06/02 03:19:27;;;;;;;10.00;7.00;;;11.80;99.90;;;;;;5009826;28;20709;-74
2022/06/02 03:22:11;;;;;;;7.82;7.00;;;11.80;99.90;;;;;;5010224;28;20209;-74
2022/06/02 03:24:55;;;;;;;10.05;6.75;;;11.80;99.90;;;;;;5011950;28;20193;-74
2022/06/02 03:27:23;;;;;;;6.57;5.70;;;11.80;99.90;;;;;;5010768;28;20241;-74
2022/06/02 03:30:06;;;;;;;7.22;5.82;;;11.80;99.90;;;;;;5011180;28;20210;-74
2022/06/02 03:32:40;;;;;;;8.73;5.82;;;11.80;99.90;;;;;;5010705;28;20178;-74
2022/06/02 03:35:16;;;;;;;6.07;5.53;;;11.70;99.90;;;;;;5011097;28;20185;-74
2022/06/02 03:37:56;;;;;;;8.88;6.55;;;11.70;99.90;;;;;;5012036;28;20689;-74
2022/06/02 03:40:42;;;;;;;7.28;5.25;;;11.60;99.90;;;;;;5010883;28;20174;-74
2022/06/02 03:43:20;;;;;;;8.00;6.95;;;11.60;99.90;;;;;;5011641;28;20638;-74
2022/06/02 03:46:31;;;;;;;7.22;6.53;;;11.60;99.90;;;;;;5011700;28;20626;-74
2022/06/02 03:49:32;;;;;;;6.00;5.40;;;11.60;99.90;;;;;;5010445;28;20166;-75
2022/06/02 03:52:22;;;;;;;6.45;5.82;;;11.60;99.90;;;;;;5010300;28;20725;-75
2022/06/02 03:55:01;;;;;;;7.35;5.80;;;11.60;99.90;;;;;;5011640;28;20697;-74
2022/06/02 03:58:04;;;;;;;6.72;6.03;;;11.60;99.90;;;;;;5011872;28;20542;-75
2022/06/02 04:01:00;;;;;;;7.25;5.95;;;11.50;99.90;;;;;;5010734;28;20194;-75
2022/06/02 04:03:42;;;;;;;7.72;6.65;;;11.50;99.90;;;;;;5011364;28;20194;-74
2022/06/02 04:06:32;;;;;;;6.70;6.10;;;11.50;99.90;;;;;;5010248;28;20173;-74
2022/06/02 04:09:10;;;;;;;9.80;7.15;;;11.50;99.90;;;;;;5010406;28;20197;-74
2022/06/02 04:15:04;;;;;;;6.60;6.00;;;11.50;99.90;;;;;;5011402;28;20201;-74
2022/06/02 04:17:55;;;;;;;8.10;6.50;;;11.60;99.90;;;;;;5011107;28;20178;-74
2022/06/02 04:20:35;;;;;;;7.82;6.55;;;11.60;99.90;;;;;;5009244;28;20209;-74
2022/06/02 04:23:38;;;;;;;7.10;6.35;;;11.60;99.90;;;;;;5011460;28;20201;-74
2022/06/02 04:26:24;;;;;;;6.78;6.05;;;11.70;99.90;;;;;;5011439;28;20166;-74
2022/06/02 04:29:00;;;;;;;6.43;5.82;;;11.70;99.90;;;;;;5010122;28;20170;-74
2022/06/02 04:32:24;;;;;;;8.60;6.93;;;11.80;99.90;;;;;;5013025;28;20298;-74
2022/06/02 04:35:36;;;;;;;7.28;6.50;;;11.80;99.90;;;;;;4981772;28;20202;-74
2022/06/02 04:38:14;;;;;;;8.05;7.25;;;11.90;99.90;;;;;;5014398;28;20591;-75
2022/06/02 04:41:00;;;;;;;7.53;6.75;;;12.00;99.90;;;;;;5012914;28;20625;-75
2022/06/02 04:43:45;;;;;;;8.63;7.00;;;12.00;99.90;;;;;;5014462;28;20178;-75
2022/06/02 04:46:42;;;;;;;7.40;6.50;;;12.10;99.90;;;;;;5014608;28;20170;-74
2022/06/02 04:49:52;;;;;;;7.63;6.88;;;12.10;99.90;;;;;;5013051;28;20172;-74
2022/06/02 04:52:53;;;;;;;7.53;6.68;;;12.10;99.90;;;;;;5014803;28;20202;-74
2022/06/02 04:55:53;;;;;;;8.55;7.60;;;12.30;99.90;;;;;;5014422;28;20186;-74
2022/06/02 04:58:30;;;;;;;8.20;7.40;;;12.30;99.90;;;;;;5014681;28;20257;-75
2022/06/02 05:01:19;;;;;;;8.73;7.63;;;12.40;99.90;;;;;;5012242;28;20564;-74
2022/06/02 05:04:14;;;;;;;8.80;7.95;;;12.50;99.90;;;;;;5013044;28;20241;-75
2022/06/02 05:06:43;;;;;;;15.13;8.80;;;12.50;99.90;;;;;;5014832;28;20166;-71
2022/06/02 05:09:46;;;;;;;10.23;7.97;;;12.60;99.90;;;;;;5013903;28;20170;-71
2022/06/02 05:12:22;;;;;;;10.25;8.70;;;12.70;99.90;;;;;;4994992;28;20186;-71
2022/06/02 05:15:06;;;;;;;9.40;8.15;;;12.80;99.90;;;;;;5012950;28;20297;-72
2022/06/02 05:17:53;;;;;;;10.48;8.20;;;12.90;99.90;;;;;;5014130;28;20228;-72
2022/06/02 05:20:44;;;;;;;10.13;9.10;;;13.10;99.90;;;;;;5013039;28;20545;-72
2022/06/02 05:23:33;;;;;;;9.35;8.38;;;13.20;99.90;;;;;;5012737;28;20179;-72
2022/06/02 05:26:16;;;;;;;11.63;9.07;;;13.30;99.90;;;;;;5012159;28;20167;-72
2022/06/02 05:29:20;;;;;;;10.85;8.70;;;13.40;99.90;;;;;;5014128;28;20166;-72
2022/06/02 05:31:59;;;;;;;9.88;8.88;;;13.50;99.90;;;;;;5013692;28;20174;-72
2022/06/02 05:34:52;;;;;;;12.95;11.70;;;13.70;99.90;;;;;;5012477;28;21446;-72
2022/06/02 05:37:33;;;;;;;12.23;10.93;;;13.80;99.90;;;;;;5008179;28;20588;-73
2022/06/02 05:40:26;;;;;;;11.70;8.45;;;13.90;99.90;;;;;;5006725;28;20185;-72
2022/06/02 05:43:21;;;;;;;9.63;7.90;;;14.10;99.90;;;;;;5011703;28;20189;-72
2022/06/02 05:46:11;;;;;;;9.63;8.68;;;14.30;99.90;;;;;;5013640;28;20550;-72
2022/06/02 05:49:02;;;;;;;10.82;9.73;;;14.60;99.90;;;;;;5012459;28;20173;-72
2022/06/02 05:51:45;;;;;;;11.00;10.00;;;14.90;99.90;;;;;;5012857;28;20171;-72
2022/06/02 05:54:48;;;;;;;10.43;9.33;;;15.50;99.90;;;;;;5013476;28;20604;-72
2022/06/02 05:57:28;;;;;;;9.53;7.73;;;16.50;99.90;;;;;;5013330;28;20557;-72
2022/06/02 06:00:17;;;;;;;8.60;7.80;;;17.80;99.90;;;;;;5012517;28;20576;-72
2022/06/02 06:03:04;;;;;;;9.27;7.43;;;18.90;99.90;;;;;;5010625;28;20954;-73
2022/06/02 06:05:45;;;;;;;9.67;8.87;;;20.30;99.90;;;;;;5011565;28;20620;-72
2022/06/02 06:08:42;;;;;;;7.50;6.80;;;21.40;99.90;;;;;;5012961;28;21030;-73
2022/06/02 06:11:40;;;;;;;6.90;6.40;;;22.50;99.90;;;;;;4994525;28;21187;-73
2022/06/02 06:14:12;;;;;;;7.67;6.90;;;23.70;99.90;;;;;;5012436;28;20640;-73
2022/06/02 06:16:56;;;;;;;7.00;6.40;;;24.90;99.90;;;;;;5012749;28;20578;-73
2022/06/02 06:19:46;;;;;;;8.63;6.87;;;25.70;99.90;;;;;;5010940;28;20975;-73
2022/06/02 06:22:31;;;;;;;6.90;6.30;;;26.80;99.90;;;;;;5012736;28;20621;-73
2022/06/02 06:25:18;;;;;;;7.60;6.90;;;27.40;99.90;;;;;;5012533;28;20596;-73
2022/06/02 06:28:13;;;;;;;7.30;6.60;;;28.10;99.90;;;;;;5010549;28;20602;-72
2022/06/02 06:30:39;;;;;;;7.93;7.13;;;28.80;98.90;;;;;;5011443;28;21212;-71
2022/06/02 06:33:49;;;;;;;7.17;6.57;;;29.50;97.70;;;;;;5012258;28;20601;-71
2022/06/02 06:37:15;;;;;;;7.20;6.50;;;29.80;96.00;;;;;;4993209;28;20280;-71
2022/06/02 06:40:00;;;;;;;11.13;6.83;;;30.40;93.60;;;;;;4956768;28;20598;-71
2022/06/02 06:43:04;;;;;;;7.53;6.83;;;31.00;92.20;;;;;;4945765;28;20636;-71
2022/06/02 06:45:40;;;;;;;7.10;6.50;;;31.40;90.00;;;;;;5002922;28;20631;-71
2022/06/02 06:48:22;;;;;;;6.60;6.00;;;31.90;88.30;;;;;;5012207;28;20653;-71
2022/06/02 06:51:01;;;;;;;7.10;6.50;;;32.20;84.80;;;;;;5011296;28;20567;-71
2022/06/02 06:53:26;;;;;;;6.63;6.03;;;32.60;81.80;;;;;;5010877;28;20575;-72
2022/06/02 06:56:19;;;;;;;6.97;6.27;;;32.90;81.30;;;;;;5011117;28;20698;-71
2022/06/02 06:59:27;;;;;;;6.40;5.77;;;33.30;75.60;;;;;;5011881;28;20177;-72
2022/06/02 07:02:22;;;;;;;9.00;6.20;;;33.60;77.50;;;;;;5010208;28;20636;-71
2022/06/02 07:04:50;;;;;;;8.30;6.70;;;33.90;70.80;;;;;;5011707;28;20648;-72
2022/06/02 07:07:40;;;;;;;6.43;5.83;;;34.20;71.40;;;;;;5012009;28;21181;-72
2022/06/02 07:10:13;;;;;;;6.77;6.27;;;34.40;67.60;;;;;;5004573;28;20698;-72
2022/06/02 07:13:06;;;;;;;7.17;6.40;;;34.70;66.50;;;;;;5010473;28;20580;-72
2022/06/02 07:15:39;;;;;;;6.97;6.40;;;34.80;63.40;;;;;;4976852;28;20708;-71
2022/06/02 07:18:24;;;;;;;7.90;6.00;;;35.10;62.50;;;;;;5011643;28;20660;-72
2022/06/02 07:21:34;;;;;;;6.87;6.20;;;35.30;61.00;;;;;;5010904;28;20723;-72
2022/06/02 07:24:03;;;;;;;7.50;6.90;;;35.10;59.70;;;;;;5011649;28;20599;-72
2022/06/02 07:26:50;;;;;;;7.87;7.07;;;34.30;56.90;;;;;;5011364;28;20609;-72
2022/06/02 07:29:45;;;;;;;8.17;7.50;;;33.50;55.10;;;;;;5011149;28;20573;-72
2022/06/02 07:32:48;;;;;;;7.73;7.03;;;32.40;54.40;;;;;;5008909;28;20597;-72
2022/06/02 07:35:43;;;;;;;7.70;7.00;;;31.40;54.90;;;;;;5010674;28;20609;-72
2022/06/02 07:38:21;;;;;;;8.53;7.73;;;30.50;55.50;;;;;;5009993;28;20629;-72
2022/06/02 07:40:54;;;;;;;8.83;7.93;;;29.60;55.60;;;;;;4992332;28;20775;-72
2022/06/02 07:43:29;;;;;;;8.20;7.30;;;29.20;56.60;;;;;;4993646;28;20902;-72
2022/06/02 07:46:25;;;;;;;7.97;7.23;;;28.90;57.00;;;;;;5011112;28;21190;-71
2022/06/02 07:49:31;;;;;;;7.23;6.60;;;28.90;58.40;;;;;;5010828;28;20660;-72
2022/06/02 07:52:22;;;;;;;7.03;6.30;;;29.40;59.80;;;;;;5010723;28;21013;-72
2022/06/02 07:54:54;;;;;;;6.93;6.00;;;29.50;59.00;;;;;;4986916;28;20633;-72
2022/06/02 07:57:41;;;;;;;8.57;7.80;;;29.80;59.30;;;;;;5007602;28;20581;-72
2022/06/02 08:00:13;;;;;;;7.10;6.50;;;29.80;58.10;;;;;;5010075;28;20600;-73
2022/06/02 08:02:46;;;;;;;7.80;7.20;;;30.00;58.70;;;;;;5011083;28;20674;-72
2022/06/02 08:05:34;;;;;;;7.70;7.00;;;30.50;59.60;;;;;;5011846;28;20633;-72
2022/06/02 08:08:20;;;;;;;7.47;6.87;;;31.20;59.10;;;;;;5015002;28;20672;-72
2022/06/02 08:11:13;;;;;;;7.70;6.67;;;31.90;58.40;;;;;;5012266;28;20998;-72
2022/06/02 08:13:48;;;;;;;8.33;7.60;;;32.50;58.30;;;;;;5013132;28;20618;-72
2022/06/02 08:16:23;;;;;;;7.43;6.83;;;33.10;54.20;;;;;;5014945;28;20579;-72
2022/06/02 08:19:09;;;;;;;7.20;6.50;;;33.60;56.60;;;;;;5014790;28;20578;-72
2022/06/02 08:21:44;;;;;;;8.30;7.47;;;34.20;56.10;;;;;;5014637;28;20627;-72
2022/06/02 08:24:24;;;;;;;8.13;6.93;;;34.70;52.70;;;;;;5014325;28;20615;-73
2022/06/02 08:27:24;;;;;;;7.23;6.63;;;35.00;52.00;;;;;;5014825;28;20627;-73
2022/06/02 08:30:05;;;;;;;8.57;5.57;;;34.80;51.70;;;;;;5006187;28;20592;-72
2022/06/02 08:32:55;;;;;;;6.27;5.50;;;34.90;51.20;;;;;;5014799;28;21131;-72
2022/06/02 08:35:32;;;;;;;7.57;6.77;;;34.80;50.10;;;;;;5014520;28;20622;-71
2022/06/02 08:38:07;;;;;;;6.20;5.70;;;34.10;46.80;;;;;;5014412;28;20583;-72
2022/06/02 08:40:52;;;;;;;5.47;5.00;;;33.30;47.50;;;;;;5013503;28;20626;-73
2022/06/02 08:44:14;;;;;;;6.07;4.90;;;33.10;48.80;;;;;;5014615;28;20572;-73
2022/06/02 08:47:10;;;;;;;6.40;5.80;;;33.20;49.80;;;;;;4934494;29;20690;-73
2022/06/02 08:50:10;;;;;;;4.97;4.57;;;33.70;49.90;;;;;;4933625;29;20685;-72
2022/06/02 08:52:51;;;;;;;5.60;5.10;;;34.20;49.80;;;;;;5006320;28;20676;-72
2022/06/02 08:55:58;;;;;;;6.40;4.80;;;34.70;49.00;;;;;;5002717;28;20621;-72
2022/06/02 08:58:42;;;;;;;4.00;3.70;;;35.30;49.20;;;;;;5011897;28;20584;-72
2022/06/02 09:01:27;;;;;;;4.70;4.30;;;36.00;49.30;;;;;;5010709;28;20625;-72
2022/06/02 09:04:17;;;;;;;5.60;4.60;;;36.50;47.60;;;;;;5013452;28;20605;-71
2022/06/02 09:07:10;;;;;;;4.23;3.83;;;37.00;47.50;;;;;;5008824;28;21132;-71
2022/06/02 09:09:56;;;;;;;5.77;5.37;;;37.20;45.70;;;;;;5012216;28;20941;-70
2022/06/02 09:13:00;;;;;;;4.27;3.97;;;36.90;42.50;;;;;;5006704;28;20588;-71
2022/06/02 09:15:50;;;;;;;4.20;3.90;;;36.50;42.40;;;;;;4993827;28;20612;-70
2022/06/02 09:18:53;;;;;;;4.57;3.77;;;35.70;40.70;;;;;;5003173;28;21164;-71
2022/06/02 09:21:32;;;;;;;4.10;3.30;;;34.70;39.70;;;;;;4979108;28;21194;-70
2022/06/02 09:24:16;;;;;;;3.90;3.50;;;34.20;40.20;;;;;;5007910;28;20661;-70
2022/06/02 09:26:47;;;;;;;5.10;2.83;;;34.00;39.90;;;;;;5033187;28;20598;-70
2022/06/02 09:29:22;;;;;;;3.30;3.00;;;34.00;41.70;;;;;;5032214;28;20566;-71
2022/06/02 09:32:02;;;;;;;3.23;2.90;;;34.00;40.70;;;;;;5013201;28;20584;-71
2022/06/02 09:35:01;;;;;;;4.10;2.80;;;34.20;41.20;;;;;;5014477;28;20628;-71
2022/06/02 09:37:39;;;;;;;2.00;1.80;;;34.60;42.10;;;;;;4954346;28;20654;-71
2022/06/02 09:40:28;;;;;;;2.60;2.00;;;34.90;42.00;;;;;;4977860;28;20595;-70
2022/06/02 09:43:23;;;;;;;4.20;2.80;;;35.30;41.60;;;;;;5012113;28;20589;-70
2022/06/02 09:45:48;;;;;;;2.30;1.80;;;35.90;41.90;;;;;;4996490;28;20696;-73
2022/06/02 09:48:42;;;;;;;2.40;2.20;;;36.20;41.30;;;;;;5012189;28;20665;-71
2022/06/02 09:51:31;;;;;;;2.20;2.00;;;36.40;39.00;;;;;;5012115;28;20659;-71
2022/06/02 09:54:19;;;;;;;3.03;2.73;;;36.00;37.10;;;;;;5012983;28;20607;-71
2022/06/02 09:57:55;;;;;;;2.63;2.43;;;35.60;36.70;;;;;;5011741;28;20569;-71
2022/06/02 10:00:04;;;;;;;2.80;1.37;;;35.40;37.90;;;;;;5012148;28;20600;-72
2022/06/02 10:03:03;;;;;;;1.80;1.53;;;35.60;38.90;;;;;;5012634;28;20633;-72
2022/06/02 10:05:44;;;;;;;2.97;2.33;;;35.80;39.10;;;;;;4995917;28;20968;-72
2022/06/02 10:08:41;;;;;;;2.47;2.13;;;35.60;35.90;;;;;;5011756;28;20581;-71
2022/06/02 10:11:18;;;;;;;2.53;1.30;;;35.00;35.60;;;;;;5008627;28;20621;-72
2022/06/02 10:13:43;;;;;;;2.80;1.63;;;34.70;37.60;;;;;;5012570;28;20647;-72
2022/06/02 10:16:38;;;;;;;1.80;1.10;;;35.00;38.30;;;;;;5012319;28;20692;-71
2022/06/02 10:19:28;;;;;;;2.07;1.17;;;35.40;37.70;;;;;;5005714;28;20190;-71
2022/06/02 10:21:56;;;;;;;2.37;1.20;;;35.50;35.20;;;;;;5012159;28;20968;-72
2022/06/02 10:24:37;;;;;;;2.20;1.40;;;35.70;36.30;;;;;;5012533;28;21042;-72
2022/06/02 10:27:22;;;;;;;1.60;1.00;;;35.80;35.80;;;;;;5012299;28;20561;-72
2022/06/02 10:30:08;;;;;;;2.03;0.90;;;35.90;36.60;;;;;;5022727;28;20593;-73
2022/06/02 10:33:05;;;;;;;2.40;1.00;;;36.20;35.80;;;;;;5030137;28;20591;-72
2022/06/02 10:36:10;;;;;;;2.10;1.17;;;36.60;35.20;;;;;;5016292;28;20679;-72
2022/06/02 10:39:00;;;;;;;2.00;1.00;;;36.20;33.80;;;;;;5023795;28;20775;-72
2022/06/02 10:41:32;;;;;;;2.40;1.07;;;35.70;33.80;;;;;;5026501;28;20684;-72
2022/06/02 10:44:16;;;;;;;1.50;0.87;;;35.50;33.30;;;;;;5020037;28;20644;-72
2022/06/02 10:47:03;;;;;;;1.33;0.80;;;35.00;33.50;;;;;;5007571;28;21185;-72
2022/06/02 10:49:55;;;;;;;1.73;0.93;;;34.70;34.20;;;;;;5017426;28;20642;-72
2022/06/02 10:52:39;;;;;;;1.70;1.50;;;34.30;30.70;;;;;;5031128;28;20673;-72
2022/06/02 10:55:28;;;;;;;2.00;1.47;;;33.70;33.00;;;;;;5012176;28;20659;-72
2022/06/02 10:58:18;;;;;;;1.80;1.13;;;33.30;33.00;;;;;;5008278;28;21028;-73
2022/06/02 11:01:04;;;;;;;1.60;1.00;;;32.80;33.50;;;;;;5000988;28;20593;-73
2022/06/02 11:04:06;;;;;;;1.90;1.30;;;32.60;34.70;;;;;;5005999;28;20699;-73
2022/06/02 11:07:10;;;;;;;3.20;1.50;;;32.70;36.10;;;;;;5010719;28;20983;-72
2022/06/02 11:10:01;;;;;;;5.32;2.42;;;32.70;34.80;;;;;;4985813;28;20826;-73
2022/06/02 11:12:47;;;;;;;2.07;1.67;;;32.00;34.50;;;;;;5011178;28;20545;-72
2022/06/02 11:15:32;;;;;;;2.70;2.07;;;31.90;34.80;;;;;;5010723;28;20629;-72
2022/06/02 11:18:29;;;;;;;1.90;1.33;;;31.70;35.80;;;;;;5004032;28;20575;-73
2022/06/02 11:21:15;;;;;;;3.00;1.30;;;31.70;35.90;;;;;;5006160;28;21247;-72
2022/06/02 11:23:59;;;;;;;2.17;1.20;;;31.70;36.00;;;;;;5010038;28;20609;-73
2022/06/02 11:26:59;;;;;;;1.87;1.20;;;31.50;36.30;;;;;;5002446;28;20988;-73
2022/06/02 11:29:42;;;;;;;2.13;1.53;;;31.10;35.50;;;;;;5009530;28;20578;-72
2022/06/02 11:32:21;;;;;;;1.70;1.30;;;30.60;35.70;;;;;;5011314;28;20604;-72
2022/06/02 11:34:49;;;;;;;1.87;1.10;;;30.40;36.30;;;;;;5011210;28;20687;-72
2022/06/02 11:37:37;;;;;;;1.40;1.00;;;30.30;37.50;;;;;;4993359;28;21034;-73
2022/06/02 11:40:26;;;;;;;1.93;1.00;;;30.30;37.60;;;;;;4992149;28;20640;-72
2022/06/02 11:43:20;;;;;;;2.27;1.20;;;30.40;37.50;;;;;;5013176;28;20621;-72
2022/06/02 11:46:10;;;;;;;1.90;1.50;;;30.40;37.30;;;;;;5006834;28;20585;-72
2022/06/02 11:48:45;;;;;;;1.70;1.17;;;30.50;37.20;;;;;;5008868;28;20589;-72
2022/06/02 11:51:36;;;;;;;2.70;1.40;;;30.60;37.90;;;;;;4992617;28;20597;-72
2022/06/02 11:54:08;;;;;;;3.80;2.17;;;30.80;37.60;;;;;;5005354;28;20599;-73
2022/06/02 11:56:59;;;;;;;3.23;1.43;;;30.90;36.80;;;;;;5004564;28;20585;-73
2022/06/02 11:59:56;;;;;;;1.80;1.03;;;30.80;38.10;;;;;;5007926;28;20587;-73
2022/06/02 12:02:36;;;;;;;1.93;1.33;;;30.80;37.60;;;;;;5001087;28;20636;-73
2022/06/02 12:05:23;;;;;;;1.80;1.40;;;30.80;37.40;;;;;;5005323;28;20639;-72
2022/06/02 12:08:19;;;;;;;2.13;1.13;;;30.70;37.30;;;;;;5002975;28;20608;-73
2022/06/02 12:10:53;;;;;;;1.97;0.90;;;30.40;36.20;;;;;;5010286;28;20569;-73
2022/06/02 12:13:40;;;;;;;2.70;1.30;;;30.10;36.30;;;;;;5010132;28;20549;-72
2022/06/02 12:16:15;;;;;;;2.53;1.30;;;29.80;36.80;;;;;;5007120;28;20928;-73
2022/06/02 12:19:06;;;;;;;1.80;1.40;;;29.50;36.50;;;;;;5009333;28;20613;-72
2022/06/02 12:21:54;;;;;;;2.10;1.07;;;29.00;36.30;;;;;;4990575;28;20630;-72
2022/06/02 12:24:49;;;;;;;4.10;1.23;;;28.60;36.90;;;;;;4998579;28;20628;-72
2022/06/02 12:27:37;;;;;;;1.80;1.10;;;28.30;37.50;;;;;;5014394;28;20635;-71
2022/06/02 12:30:18;;;;;;;1.70;1.10;;;28.10;37.60;;;;;;4989586;28;20562;-72
2022/06/02 12:33:19;;;;;;;1.97;1.10;;;28.00;37.90;;;;;;4989361;28;20656;-72
2022/06/02 12:36:12;;;;;;;1.43;1.00;;;27.90;38.00;;;;;;5009412;28;20629;-73
2022/06/02 12:39:21;;;;;;;1.80;1.00;;;27.90;38.40;;;;;;5010876;28;20664;-72
2022/06/02 12:42:11;;;;;;;1.60;1.00;;;27.90;38.60;;;;;;5010161;28;20628;-72
2022/06/02 12:45:15;;;;;;;2.30;1.50;;;27.90;38.90;;;;;;5010187;28;20635;-72
2022/06/02 12:48:09;;;;;;;1.90;1.37;;;27.80;39.30;;;;;;5010607;28;20582;-72
2022/06/02 12:50:42;;;;;;;1.50;0.90;;;27.70;38.80;;;;;;5009858;28;20660;-73
2022/06/02 12:53:30;;;;;;;1.70;0.97;;;27.50;38.60;;;;;;5008133;28;21155;-72
2022/06/02 12:56:15;;;;;;;2.20;1.10;;;27.30;38.70;;;;;;4989052;28;20585;-73
2022/06/02 12:59:13;;;;;;;1.93;0.87;;;27.10;39.20;;;;;;5010067;28;20588;-72
2022/06/02 13:01:48;;;;;;;2.47;0.80;;;26.90;39.80;;;;;;5012706;28;20633;-72
2022/06/02 13:04:37;;;;;;;1.73;1.00;;;26.70;39.50;;;;;;5013849;28;20615;-72
2022/06/02 13:07:15;;;;;;;2.00;0.90;;;26.40;39.20;;;;;;4993735;28;20628;-73
2022/06/02 13:10:06;;;;;;;2.33;0.97;;;26.20;39.30;;;;;;5012954;28;20619;-73
2022/06/02 13:12:31;;;;;;;1.50;0.80;;;26.00;39.20;;;;;;5013716;28;20557;-73
2022/06/02 13:15:32;;;;;;;1.67;0.90;;;25.90;39.50;;;;;;5012612;28;20624;-73
2022/06/02 13:18:22;;;;;;;2.27;1.30;;;25.70;40.00;;;;;;5004875;28;20609;-73
2022/06/02 13:21:26;;;;;;;3.30;0.80;;;25.60;40.00;;;;;;5007391;28;20964;-72
2022/06/02 13:24:26;;;;;;;2.03;0.80;;;25.40;40.70;;;;;;5013511;28;20624;-72
2022/06/02 13:27:22;;;;;;;2.00;1.00;;;25.30;40.90;;;;;;5013477;28;20557;-72
2022/06/02 13:30:04;;;;;;;1.80;1.00;;;25.20;41.10;;;;;;5001856;28;20946;-72
2022/06/02 13:32:35;;;;;;;2.37;0.90;;;25.10;41.50;;;;;;5013550;28;20565;-72
2022/06/02 13:35:37;;;;;;;2.33;1.20;;;25.00;41.10;;;;;;5012936;28;20636;-72
2022/06/02 13:38:13;;;;;;;1.40;0.80;;;24.90;41.50;;;;;;5018374;28;21143;-72
2022/06/02 13:41:17;;;;;;;3.10;0.80;;;25.00;41.50;;;;;;5012212;28;20593;-72
2022/06/02 13:44:19;;;;;;;2.57;0.80;;;25.00;41.80;;;;;;5012954;28;20608;-72
2022/06/02 13:47:02;;;;;;;2.70;0.90;;;25.10;41.90;;;;;;5012806;28;20675;-72
2022/06/02 13:49:55;;;;;;;1.50;0.90;;;25.10;41.70;;;;;;4992948;28;20608;-72
2022/06/02 13:52:42;;;;;;;1.63;1.00;;;25.10;41.90;;;;;;4993461;28;21322;-72
2022/06/02 13:58:06;;;;;;;1.63;0.83;;;25.00;41.80;;;;;;4993085;28;20596;-72
2022/06/02 14:00:47;;;;;;;2.30;0.80;;;24.90;42.00;;;;;;4995327;28;20590;-72
2022/06/02 14:03:21;;;;;;;1.83;0.80;;;24.90;42.50;;;;;;5011946;28;20565;-72
2022/06/02 14:05:47;;;;;;;1.50;0.80;;;24.90;42.40;;;;;;4994526;28;20617;-72
2022/06/02 14:08:34;;;;;;;1.70;1.00;;;24.90;42.10;;;;;;5007172;28;20616;-72
2022/06/02 14:11:03;;;;;;;1.67;0.80;;;24.80;42.20;;;;;;5014159;28;20229;-72
2022/06/02 14:13:50;;;;;;;1.80;0.60;;;24.70;42.20;;;;;;5013164;28;20640;-72
2022/06/02 14:16:48;;;;;;;1.40;0.70;;;24.70;42.50;;;;;;5012815;28;20565;-73
2022/06/02 14:19:51;;;;;;;1.40;0.77;;;24.80;42.50;;;;;;4999054;28;20597;-73
2022/06/02 14:22:49;;;;;;;1.30;0.70;;;24.70;42.60;;;;;;4976512;28;20633;-72
2022/06/02 14:25:25;;;;;;;1.80;0.97;;;24.60;42.40;;;;;;5011720;28;20688;-72
2022/06/02 14:28:29;;;;;;;1.90;1.03;;;24.50;42.70;;;;;;5007563;28;21191;-72
2022/06/02 14:31:04;;;;;;;2.90;1.10;;;24.40;42.70;;;;;;4995162;28;20584;-72
2022/06/02 14:33:35;;;;;;;1.50;0.90;;;24.40;42.60;;;;;;5012478;28;21109;-72
2022/06/02 14:36:02;;;;;;;2.30;0.80;;;24.30;42.30;;;;;;5012633;28;20624;-72